Impacts METAR Board
IDs:

KORD - Chicago/O'Hare Intl, IL, US

Updated at: 0100 UTC 31 May 2020
Potential Impact None Slight Moderate High
Time 30/13Z 30/14Z 30/15Z 30/16Z 30/17Z 30/18Z 30/19Z 30/20Z 30/21Z 30/22Z 30/23Z 31/00Z 31/01Z
Temp59 61 64 68 70 71 73 73 70 68 67 65 62
Dewpt50 49 47 47 46 46 45 49 50 49 48 46 45
Altim30.18 30.19 30.18 30.17 30.17 30.16 30.16 30.16 30.16 30.16 30.16 30.17 30.19
VIS10 10 10 10 10 10 10 10 10 10 10 10 10
CIG-- -- -- 60 48 70 70 60 -- -- -- -- --
CoverFEWFEWSCTBKNOVCBKNBKNBKNSCTFEWFEWFEWFEW
FltCatVFRVFRVFRVFRVFRVFRVFRVFRVFRVFRVFRVFRVFR
WX--------------------------
WDir3403402903103203203103608080809080
WSpd4 5 6 4 8 12 11 11 8 9 8 7 9
WGst-- -- -- -- -- -- -- -- -- -- -- -- --
Raw hourly METARs
KORD 301251Z 34004KT 10SM FEW070 FEW250 15/10 A3018 RMK AO2 SLP217 T01500100 $
KORD 301351Z 34005KT 10SM FEW070 FEW250 16/09 A3019 RMK AO2 SLP221 T01610094 $
KORD 301451Z 29006KT 10SM SCT065 SCT250 18/08 A3018 RMK AO2 SLP218 T01780083 50003 $
KORD 301551Z 31004KT 10SM SCT045 BKN060 20/09 A3017 RMK AO2 SLP214 T02000083 $
KORD 301651Z 32008KT 10SM BKN048 OVC065 21/08 A3017 RMK AO2 SLP213 T02110078 $
KORD 301751Z 32012KT 10SM SCT050 BKN070 22/08 A3016 RMK AO2 SLP212 T02170078 10217 20144 56005 $
KORD 301851Z 31011KT 10SM SCT055 BKN070 23/07 A3016 RMK AO2 SLP211 T02280072 $
KORD 301951Z 36011KT 10SM BKN060 23/09 A3016 RMK AO2 SLP210 T02280094 $
KORD 302051Z 08008KT 10SM SCT060 21/10 A3016 RMK AO2 SLP211 T02110100 56001 $
KORD 302151Z 08009KT 10SM FEW065 20/09 A3016 RMK AO2 SLP213 T02000094 $
KORD 302251Z 08008KT 10SM FEW065 19/09 A3016 RMK AO2 SLP211 T01940089 $
KORD 302351Z 09007KT 10SM FEW065 18/08 A3017 RMK AO2 SLP216 T01830078 10228 20183 53004 $
KORD 310051Z 08009KT 10SM FEW070 17/07 A3019 RMK AO2 SLP222 T01670072 $



Page loaded:  01:39 UTC  |   06:39 PM Pacific  |   07:39 PM Mountain  |   08:39 PM Central  |   09:39 PM Eastern

 

ADVISORIES

FORECASTS

FORECASTS

OBSERVATIONS

USER TOOLS

ABOUT US